Leander — DEDP — position and weather

sailwx.info

Track history (hours):
 
Tides and Currents Weather Stations Pressure Air Temp Water Temp Dewpoint Dewpoint Depression Visibility Wind Speed Wind Dir Waves Ship Positions

Leander

Last reported at 2017-Sep-18 21:46 UTC. Time now 2017-Sep-22 02:40 UTC.
Position N 32°36' E 015°11'.

Length 144 m; draft 7.6 m.

Type: Ship. MMSI: 218731000.

Date/timePositionNaut miles runAvg speedWind from/ knotsBaromVisibWave heightAir tempDewpointWater temp
2017-Sep-18 21:46N 32°36' E 015°11'1612.3
2017-Sep-18 20:27N 32°42' E 014°54'612.2
2017-Sep-18 20:00N 32°44' E 014°48'712.0
2017-Sep-18 19:27N 32°47' E 014°40'612.2
2017-Sep-18 18:59N 32°49' E 014°34'1811.5
2017-Sep-18 17:23N 32°56' E 014°14'511.8
2017-Sep-18 17:00N 32°58' E 014°09'48 2.3
2017-Sep-17 20:30N 32°56' E 013°12'0 0.0
2017-Sep-17 20:00N 32°56' E 013°12'0 0.0
2017-Sep-17 19:30N 32°56' E 013°12'0 0.0
2017-Sep-17 19:00N 32°56' E 013°12'0 0.1
2017-Sep-17 18:30N 32°56' E 013°12'0 0.1
2017-Sep-17 18:00N 32°56' E 013°11'0 0.0
2017-Sep-17 17:30N 32°56' E 013°11'  
2017-Sep-15 02:18N 32°57' E 013°12'0 0.0
2017-Sep-15 01:12N 32°57' E 013°12'0 0.0
2017-Sep-15 00:00N 32°57' E 013°11'0 0.1
2017-Sep-14 23:30N 32°56' E 013°11'0 0.0
2017-Sep-14 23:00N 32°56' E 013°11'0 0.0
2017-Sep-14 22:30N 32°56' E 013°11'0 0.0
2017-Sep-14 22:00N 32°56' E 013°11'0 0.0
2017-Sep-14 21:24N 32°56' E 013°11'0 0.0
2017-Sep-14 20:54N 32°56' E 013°11'0 0.0
2017-Sep-14 20:30N 32°56' E 013°11'0 0.0
2017-Sep-14 20:00N 32°56' E 013°11'0 0.0
2017-Sep-14 19:18N 32°56' E 013°11'0 0.0
2017-Sep-14 18:57N 32°56' E 013°11'0 0.0
2017-Sep-14 18:30N 32°56' E 013°11'0 0.0
2017-Sep-14 17:57N 32°56' E 013°11'0 0.0
2017-Sep-14 17:24N 32°56' E 013°11'0 0.0
2017-Sep-14 17:00N 32°56' E 013°11'0 0.0
2017-Sep-14 16:27N 32°56' E 013°11'0 0.0
2017-Sep-14 15:54N 32°56' E 013°11'0 0.0
2017-Sep-14 15:15N 32°56' E 013°12'0 0.0
2017-Sep-14 09:51N 32°56' E 013°11'0 0.2
2017-Sep-14 09:30N 32°56' E 013°11'0 0.1
2017-Sep-14 08:18N 32°57' E 013°11'0 0.0
2017-Sep-14 07:57N 32°57' E 013°12'0 0.0
2017-Sep-13 22:18N 32°56' E 013°11'0 0.0
2017-Sep-13 21:24N 32°56' E 013°11'0 0.0
2017-Sep-13 21:00N 32°56' E 013°11'0 0.0
2017-Sep-13 20:30N 32°56' E 013°11'0 0.0
2017-Sep-13 20:00N 32°56' E 013°11'0 0.0
2017-Sep-13 19:30N 32°56' E 013°11'0 0.1
2017-Sep-13 18:35N 32°56' E 013°12'0 1.1
2017-Sep-13 18:23N 32°56' E 013°11'8 7.0
2017-Sep-13 17:17N 33°04' E 013°09'411.6
2017-Sep-13 16:55N 33°03' E 013°04'  
2017-Sep-10 16:10N 32°49' E 012°40'0 0.0
2017-Sep-10 15:52N 32°49' E 012°40'0 0.0
2017-Sep-10 15:28N 32°49' E 012°40'0 0.0
2017-Sep-10 14:58N 32°49' E 012°40'0 0.0
2017-Sep-10 13:58N 32°49' E 012°40'0 0.0
2017-Sep-10 13:28N 32°49' E 012°40'0 0.0
2017-Sep-10 12:52N 32°49' E 012°40'0 0.0
2017-Sep-10 07:19N 32°49' E 012°40'  
Track history (hours):
 
Tides and Currents Weather Stations Pressure Air Temp Water Temp Dewpoint Dewpoint Depression Visibility Wind Speed Wind Dir Waves Ship Positions

Leander

Last reported at 2017-Sep-18 21:46 UTC. Time now 2017-Sep-22 02:40 UTC.
Position N 32°36' E 015°11'.

Length 144 m; draft 7.6 m.

Type: Ship. MMSI: 218731000.

Date/timePositionNaut miles runAvg speedWind from/ knotsBaromVisibWave heightAir tempDewpointWater temp
2017-Sep-18 21:46N 32°36' E 015°11'1612.3
2017-Sep-18 20:27N 32°42' E 014°54'612.2
2017-Sep-18 20:00N 32°44' E 014°48'712.0
2017-Sep-18 19:27N 32°47' E 014°40'612.2
2017-Sep-18 18:59N 32°49' E 014°34'1811.5
2017-Sep-18 17:23N 32°56' E 014°14'511.8
2017-Sep-18 17:00N 32°58' E 014°09'48 2.3
2017-Sep-17 20:30N 32°56' E 013°12'0 0.0
2017-Sep-17 20:00N 32°56' E 013°12'0 0.0
2017-Sep-17 19:30N 32°56' E 013°12'0 0.0
2017-Sep-17 19:00N 32°56' E 013°12'0 0.1
2017-Sep-17 18:30N 32°56' E 013°12'0 0.1
2017-Sep-17 18:00N 32°56' E 013°11'0 0.0
2017-Sep-17 17:30N 32°56' E 013°11'  
2017-Sep-15 02:18N 32°57' E 013°12'0 0.0
2017-Sep-15 01:12N 32°57' E 013°12'0 0.0
2017-Sep-15 00:00N 32°57' E 013°11'0 0.1
2017-Sep-14 23:30N 32°56' E 013°11'0 0.0
2017-Sep-14 23:00N 32°56' E 013°11'0 0.0
2017-Sep-14 22:30N 32°56' E 013°11'0 0.0
2017-Sep-14 22:00N 32°56' E 013°11'0 0.0
2017-Sep-14 21:24N 32°56' E 013°11'0 0.0
2017-Sep-14 20:54N 32°56' E 013°11'0 0.0
2017-Sep-14 20:30N 32°56' E 013°11'0 0.0
2017-Sep-14 20:00N 32°56' E 013°11'0 0.0
2017-Sep-14 19:18N 32°56' E 013°11'0 0.0
2017-Sep-14 18:57N 32°56' E 013°11'0 0.0
2017-Sep-14 18:30N 32°56' E 013°11'0 0.0
2017-Sep-14 17:57N 32°56' E 013°11'0 0.0
2017-Sep-14 17:24N 32°56' E 013°11'0 0.0
2017-Sep-14 17:00N 32°56' E 013°11'0 0.0
2017-Sep-14 16:27N 32°56' E 013°11'0 0.0
2017-Sep-14 15:54N 32°56' E 013°11'0 0.0
2017-Sep-14 15:15N 32°56' E 013°12'0 0.0
2017-Sep-14 09:51N 32°56' E 013°11'0 0.2
2017-Sep-14 09:30N 32°56' E 013°11'0 0.1
2017-Sep-14 08:18N 32°57' E 013°11'0 0.0
2017-Sep-14 07:57N 32°57' E 013°12'0 0.0
2017-Sep-13 22:18N 32°56' E 013°11'0 0.0
2017-Sep-13 21:24N 32°56' E 013°11'0 0.0
2017-Sep-13 21:00N 32°56' E 013°11'0 0.0
2017-Sep-13 20:30N 32°56' E 013°11'0 0.0
2017-Sep-13 20:00N 32°56' E 013°11'0 0.0
2017-Sep-13 19:30N 32°56' E 013°11'0 0.1
2017-Sep-13 18:35N 32°56' E 013°12'0 1.1
2017-Sep-13 18:23N 32°56' E 013°11'8 7.0
2017-Sep-13 17:17N 33°04' E 013°09'411.6
2017-Sep-13 16:55N 33°03' E 013°04'  
2017-Sep-10 16:10N 32°49' E 012°40'0 0.0
2017-Sep-10 15:52N 32°49' E 012°40'0 0.0
2017-Sep-10 15:28N 32°49' E 012°40'0 0.0
2017-Sep-10 14:58N 32°49' E 012°40'0 0.0
2017-Sep-10 13:58N 32°49' E 012°40'0 0.0
2017-Sep-10 13:28N 32°49' E 012°40'0 0.0
2017-Sep-10 12:52N 32°49' E 012°40'0 0.0
2017-Sep-10 07:19N 32°49' E 012°40'  

Dump ship's entire track history